< < Back
Terminal Aerodrome Forecast


Current Version              Previous Versions:   1  2  3  4  5  6  7  8  9  

Terminal Aerodrome Forecast

611
FTUS44 KBMX 242151 AAA
TAFTCL
TAF AMD
KTCL 242151Z 2422/2518 17006KT P6SM VCTS SCT050CB
     FM250000 VRB02KT P6SM SCT250=



Latest METAR

926
SAUS70 KWBC 251000 RRC
MTRTCL
METAR KTCL 250953Z AUTO 00000KT 10SM CLR 23/23 A3003 RMK AO2 SLP165
T02330233


USA.gov is the U.S. government's official web portal to all federal, state and local government web resources and services.